sensor_id;sensor_type;location;lat;lon;timestamp;pressure;altitude;pressure_sealevel;temperature;humidity
17209;BME280;8720;48.488;9.202;2022-08-14T00:01:38;96665.81;;;23.86;34.30
17209;BME280;8720;48.488;9.202;2022-08-14T00:04:07;96656.50;;;23.80;34.29
17209;BME280;8720;48.488;9.202;2022-08-14T00:06:35;96664.28;;;23.72;34.58
17209;BME280;8720;48.488;9.202;2022-08-14T00:09:03;96653.63;;;23.61;34.69
17209;BME280;8720;48.488;9.202;2022-08-14T00:11:30;96657.41;;;23.59;34.71
17209;BME280;8720;48.488;9.202;2022-08-14T00:13:57;96650.72;;;23.53;35.16
17209;BME280;8720;48.488;9.202;2022-08-14T00:16:25;96653.66;;;23.50;35.05
17209;BME280;8720;48.488;9.202;2022-08-14T00:18:52;96652.09;;;23.48;34.68
17209;BME280;8720;48.488;9.202;2022-08-14T00:21:21;96647.09;;;23.43;35.00
17209;BME280;8720;48.488;9.202;2022-08-14T00:23:48;96642.88;;;23.40;34.90
17209;BME280;8720;48.488;9.202;2022-08-14T00:26:16;96646.63;;;23.38;35.12
17209;BME280;8720;48.488;9.202;2022-08-14T00:28:43;96635.38;;;23.34;35.18
17209;BME280;8720;48.488;9.202;2022-08-14T00:31:11;96625.91;;;23.30;35.31
17209;BME280;8720;48.488;9.202;2022-08-14T00:33:39;96623.56;;;23.26;35.05
17209;BME280;8720;48.488;9.202;2022-08-14T00:36:07;96626.50;;;23.23;35.56
17209;BME280;8720;48.488;9.202;2022-08-14T00:38:36;96627.56;;;23.20;35.91
17209;BME280;8720;48.488;9.202;2022-08-14T00:41:06;96614.47;;;23.17;35.70
17209;BME280;8720;48.488;9.202;2022-08-14T00:43:34;96619.09;;;23.15;35.87
17209;BME280;8720;48.488;9.202;2022-08-14T00:46:03;96621.03;;;23.13;35.76
17209;BME280;8720;48.488;9.202;2022-08-14T00:48:31;96619.72;;;23.08;36.03
17209;BME280;8720;48.488;9.202;2022-08-14T00:50:59;96623.59;;;23.04;35.85
17209;BME280;8720;48.488;9.202;2022-08-14T00:53:27;96620.31;;;23.00;35.89
17209;BME280;8720;48.488;9.202;2022-08-14T00:55:56;96618.13;;;22.94;36.13
17209;BME280;8720;48.488;9.202;2022-08-14T00:58:24;96613.03;;;22.91;36.05
17209;BME280;8720;48.488;9.202;2022-08-14T01:00:58;96611.84;;;22.84;36.10
17209;BME280;8720;48.488;9.202;2022-08-14T01:03:27;96610.38;;;22.80;36.34
17209;BME280;8720;48.488;9.202;2022-08-14T01:05:56;96607.97;;;22.77;36.82
17209;BME280;8720;48.488;9.202;2022-08-14T01:08:27;96609.03;;;22.75;37.06
17209;BME280;8720;48.488;9.202;2022-08-14T01:10:58;96602.25;;;22.71;36.96
17209;BME280;8720;48.488;9.202;2022-08-14T01:13:30;96603.59;;;22.65;37.10
17209;BME280;8720;48.488;9.202;2022-08-14T01:16:01;96603.06;;;22.60;37.15
17209;BME280;8720;48.488;9.202;2022-08-14T01:18:30;96609.53;;;22.58;37.50
17209;BME280;8720;48.488;9.202;2022-08-14T01:21:21;96612.75;;;22.50;37.40
17209;BME280;8720;48.488;9.202;2022-08-14T01:23:52;96603.28;;;22.46;37.66
17209;BME280;8720;48.488;9.202;2022-08-14T01:26:21;96612.50;;;22.42;37.94
17209;BME280;8720;48.488;9.202;2022-08-14T01:28:50;96611.28;;;22.35;38.01
17209;BME280;8720;48.488;9.202;2022-08-14T01:31:23;96609.91;;;22.29;38.23
17209;BME280;8720;48.488;9.202;2022-08-14T01:33:54;96617.41;;;22.24;38.07
17209;BME280;8720;48.488;9.202;2022-08-14T01:36:25;96620.44;;;22.20;38.39
17209;BME280;8720;48.488;9.202;2022-08-14T01:38:55;96617.50;;;22.12;38.43
17209;BME280;8720;48.488;9.202;2022-08-14T01:41:25;96622.56;;;22.04;38.72
17209;BME280;8720;48.488;9.202;2022-08-14T01:43:56;96617.81;;;21.96;38.84
17209;BME280;8720;48.488;9.202;2022-08-14T01:46:28;96613.06;;;21.89;38.53
17209;BME280;8720;48.488;9.202;2022-08-14T01:48:57;96616.56;;;21.89;38.52
17209;BME280;8720;48.488;9.202;2022-08-14T01:51:28;96614.28;;;21.85;38.94
17209;BME280;8720;48.488;9.202;2022-08-14T01:53:58;96609.38;;;21.79;38.78
17209;BME280;8720;48.488;9.202;2022-08-14T01:56:29;96601.72;;;21.74;39.06
17209;BME280;8720;48.488;9.202;2022-08-14T01:59:05;96594.31;;;21.66;38.93
17209;BME280;8720;48.488;9.202;2022-08-14T02:01:33;96592.94;;;21.61;39.33
17209;BME280;8720;48.488;9.202;2022-08-14T02:04:04;96594.13;;;21.57;39.68
17209;BME280;8720;48.488;9.202;2022-08-14T02:06:33;96593.53;;;21.53;39.70
17209;BME280;8720;48.488;9.202;2022-08-14T02:09:03;96585.97;;;21.47;39.74
17209;BME280;8720;48.488;9.202;2022-08-14T02:11:31;96587.16;;;21.43;39.59
17209;BME280;8720;48.488;9.202;2022-08-14T02:14:03;96591.88;;;21.40;40.02
17209;BME280;8720;48.488;9.202;2022-08-14T02:16:33;96585.06;;;21.36;40.07
17209;BME280;8720;48.488;9.202;2022-08-14T02:19:06;96587.19;;;21.31;39.95
17209;BME280;8720;48.488;9.202;2022-08-14T02:21:39;96588.50;;;21.25;39.71
17209;BME280;8720;48.488;9.202;2022-08-14T02:24:07;96587.03;;;21.21;39.96
17209;BME280;8720;48.488;9.202;2022-08-14T02:26:37;96576.31;;;21.10;40.03
17209;BME280;8720;48.488;9.202;2022-08-14T02:29:09;96567.16;;;21.14;39.93
17209;BME280;8720;48.488;9.202;2022-08-14T02:31:40;96563.03;;;21.10;40.07
17209;BME280;8720;48.488;9.202;2022-08-14T02:34:12;96564.00;;;21.09;40.14
17209;BME280;8720;48.488;9.202;2022-08-14T02:36:41;96565.91;;;21.07;40.52
17209;BME280;8720;48.488;9.202;2022-08-14T02:39:10;96559.13;;;21.03;40.72
17209;BME280;8720;48.488;9.202;2022-08-14T02:41:38;96550.41;;;21.01;40.43
17209;BME280;8720;48.488;9.202;2022-08-14T02:44:09;96553.34;;;20.97;40.78
17209;BME280;8720;48.488;9.202;2022-08-14T02:46:37;96545.50;;;20.95;40.95
17209;BME280;8720;48.488;9.202;2022-08-14T02:49:05;96538.56;;;20.93;40.95
17209;BME280;8720;48.488;9.202;2022-08-14T02:51:34;96526.69;;;20.86;40.92
17209;BME280;8720;48.488;9.202;2022-08-14T02:54:04;96530.22;;;20.86;40.92
17209;BME280;8720;48.488;9.202;2022-08-14T02:56:32;96528.94;;;20.79;40.99
17209;BME280;8720;48.488;9.202;2022-08-14T02:59:05;96528.84;;;20.80;41.05
17209;BME280;8720;48.488;9.202;2022-08-14T03:01:34;96532.56;;;20.78;41.16
17209;BME280;8720;48.488;9.202;2022-08-14T03:04:03;96526.63;;;20.74;41.31
17209;BME280;8720;48.488;9.202;2022-08-14T03:06:31;96528.75;;;20.69;41.26
17209;BME280;8720;48.488;9.202;2022-08-14T03:08:58;96522.81;;;20.66;41.62
17209;BME280;8720;48.488;9.202;2022-08-14T03:11:27;96524.84;;;20.62;41.56
17209;BME280;8720;48.488;9.202;2022-08-14T03:13:54;96519.75;;;20.59;41.58
17209;BME280;8720;48.488;9.202;2022-08-14T03:16:24;96514.75;;;20.55;41.72
17209;BME280;8720;48.488;9.202;2022-08-14T03:18:53;96507.97;;;20.51;41.69
17209;BME280;8720;48.488;9.202;2022-08-14T03:21:23;96510.94;;;20.46;42.08
17209;BME280;8720;48.488;9.202;2022-08-14T03:23:53;96509.38;;;20.44;42.12
17209;BME280;8720;48.488;9.202;2022-08-14T03:26:27;96492.75;;;20.40;42.36
17209;BME280;8720;48.488;9.202;2022-08-14T03:28:55;96488.41;;;20.39;42.34
17209;BME280;8720;48.488;9.202;2022-08-14T03:31:23;96490.34;;;20.37;42.34
17209;BME280;8720;48.488;9.202;2022-08-14T03:33:50;96480.75;;;20.35;42.71
17209;BME280;8720;48.488;9.202;2022-08-14T03:36:19;96472.91;;;20.33;42.49
17209;BME280;8720;48.488;9.202;2022-08-14T03:38:50;96480.25;;;20.30;42.42
17209;BME280;8720;48.488;9.202;2022-08-14T03:41:21;96490.25;;;20.26;42.29
17209;BME280;8720;48.488;9.202;2022-08-14T03:43:53;96495.78;;;20.23;42.36
17209;BME280;8720;48.488;9.202;2022-08-14T03:46:22;96503.22;;;20.18;42.54
17209;BME280;8720;48.488;9.202;2022-08-14T03:48:49;96492.88;;;20.14;42.68
17209;BME280;8720;48.488;9.202;2022-08-14T03:51:19;96487.06;;;20.09;42.76
17209;BME280;8720;48.488;9.202;2022-08-14T03:53:47;96488.41;;;20.02;42.90
17209;BME280;8720;48.488;9.202;2022-08-14T03:56:16;96485.97;;;19.99;42.94
17209;BME280;8720;48.488;9.202;2022-08-14T03:58:46;96484.38;;;19.96;43.07
17209;BME280;8720;48.488;9.202;2022-08-14T04:01:17;96485.56;;;19.92;43.26
17209;BME280;8720;48.488;9.202;2022-08-14T04:03:46;96477.81;;;19.89;43.39
17209;BME280;8720;48.488;9.202;2022-08-14T04:06:14;96471.75;;;19.87;43.45
17209;BME280;8720;48.488;9.202;2022-08-14T04:08:42;96471.00;;;19.85;43.26
17209;BME280;8720;48.488;9.202;2022-08-14T04:11:09;96471.25;;;19.82;43.21
17209;BME280;8720;48.488;9.202;2022-08-14T04:13:39;96468.66;;;19.80;43.43
17209;BME280;8720;48.488;9.202;2022-08-14T04:16:10;96465.38;;;19.77;43.68
17209;BME280;8720;48.488;9.202;2022-08-14T04:18:40;96474.44;;;19.74;43.67
17209;BME280;8720;48.488;9.202;2022-08-14T04:21:13;96471.78;;;19.74;44.04
17209;BME280;8720;48.488;9.202;2022-08-14T04:23:41;96478.03;;;19.73;43.88
17209;BME280;8720;48.488;9.202;2022-08-14T04:26:12;96471.84;;;19.73;44.01
17209;BME280;8720;48.488;9.202;2022-08-14T04:28:42;96475.34;;;19.73;44.12
17209;BME280;8720;48.488;9.202;2022-08-14T04:31:09;96474.63;;;19.71;44.03
17209;BME280;8720;48.488;9.202;2022-08-14T04:33:37;96482.81;;;19.68;44.19
17209;BME280;8720;48.488;9.202;2022-08-14T04:36:06;96487.69;;;19.74;43.84
17209;BME280;8720;48.488;9.202;2022-08-14T04:38:34;96486.84;;;19.74;43.89
17209;BME280;8720;48.488;9.202;2022-08-14T04:41:18;96502.66;;;19.75;43.94
17209;BME280;8720;48.488;9.202;2022-08-14T04:44:04;96502.22;;;19.94;44.49
17209;BME280;8720;48.488;9.202;2022-08-14T04:46:34;96500.88;;;20.26;44.29
17209;BME280;8720;48.488;9.202;2022-08-14T04:49:02;96494.63;;;20.63;44.28
17209;BME280;8720;48.488;9.202;2022-08-14T04:51:30;96485.75;;;20.88;43.73
17209;BME280;8720;48.488;9.202;2022-08-14T04:53:58;96485.38;;;21.05;43.14
17209;BME280;8720;48.488;9.202;2022-08-14T04:56:26;96494.25;;;21.17;43.26
17209;BME280;8720;48.488;9.202;2022-08-14T04:59:00;96491.78;;;21.26;42.81
17209;BME280;8720;48.488;9.202;2022-08-14T05:01:29;96496.41;;;21.35;42.73
17209;BME280;8720;48.488;9.202;2022-08-14T05:03:57;96500.28;;;21.42;42.49
17209;BME280;8720;48.488;9.202;2022-08-14T05:06:24;96503.22;;;21.50;42.58
17209;BME280;8720;48.488;9.202;2022-08-14T05:08:53;96506.28;;;21.57;42.41
17209;BME280;8720;48.488;9.202;2022-08-14T05:11:20;96499.50;;;21.64;42.31
17209;BME280;8720;48.488;9.202;2022-08-14T05:13:47;96506.09;;;21.71;41.99
17209;BME280;8720;48.488;9.202;2022-08-14T05:16:15;96507.94;;;21.82;42.16
17209;BME280;8720;48.488;9.202;2022-08-14T05:18:42;96505.56;;;21.90;42.35
17209;BME280;8720;48.488;9.202;2022-08-14T05:21:11;96495.03;;;21.99;41.83
17209;BME280;8720;48.488;9.202;2022-08-14T05:23:39;96486.44;;;22.07;41.73
17209;BME280;8720;48.488;9.202;2022-08-14T05:26:08;96485.84;;;22.14;41.42
17209;BME280;8720;48.488;9.202;2022-08-14T05:28:41;96480.16;;;22.19;41.17
17209;BME280;8720;48.488;9.202;2022-08-14T05:31:11;96482.44;;;22.23;41.12
17209;BME280;8720;48.488;9.202;2022-08-14T05:33:39;96474.34;;;22.25;41.26
17209;BME280;8720;48.488;9.202;2022-08-14T05:36:09;96479.78;;;22.23;41.27
17209;BME280;8720;48.488;9.202;2022-08-14T05:38:39;96469.84;;;22.25;41.47
17209;BME280;8720;48.488;9.202;2022-08-14T05:41:11;96473.97;;;22.29;41.23
17209;BME280;8720;48.488;9.202;2022-08-14T05:43:39;96475.19;;;22.36;41.18
17209;BME280;8720;48.488;9.202;2022-08-14T05:46:09;96474.72;;;22.42;41.02
17209;BME280;8720;48.488;9.202;2022-08-14T05:48:40;96483.06;;;22.49;40.81
17209;BME280;8720;48.488;9.202;2022-08-14T05:51:07;96478.00;;;22.57;40.76
17209;BME280;8720;48.488;9.202;2022-08-14T05:53:34;96472.06;;;22.65;40.53
17209;BME280;8720;48.488;9.202;2022-08-14T05:56:02;96467.91;;;22.72;40.56
17209;BME280;8720;48.488;9.202;2022-08-14T05:58:31;96472.75;;;22.78;40.39
17209;BME280;8720;48.488;9.202;2022-08-14T06:00:58;96476.63;;;22.85;40.47
17209;BME280;8720;48.488;9.202;2022-08-14T06:03:25;96467.16;;;22.92;40.14
17209;BME280;8720;48.488;9.202;2022-08-14T06:05:55;96468.22;;;23.00;40.36
17209;BME280;8720;48.488;9.202;2022-08-14T06:08:25;96466.59;;;23.09;40.15
17209;BME280;8720;48.488;9.202;2022-08-14T06:10:55;96459.69;;;23.17;39.82
17209;BME280;8720;48.488;9.202;2022-08-14T06:13:28;96464.25;;;23.26;39.79
17209;BME280;8720;48.488;9.202;2022-08-14T06:15:58;96458.88;;;23.37;39.90
17209;BME280;8720;48.488;9.202;2022-08-14T06:18:25;96453.50;;;23.49;39.92
17209;BME280;8720;48.488;9.202;2022-08-14T06:20:53;96458.38;;;23.64;39.64
17209;BME280;8720;48.488;9.202;2022-08-14T06:23:20;96452.19;;;24.05;39.69
17209;BME280;8720;48.488;9.202;2022-08-14T06:25:48;96448.84;;;24.73;39.35
17209;BME280;8720;48.488;9.202;2022-08-14T06:28:16;96441.78;;;25.50;38.73
17209;BME280;8720;48.488;9.202;2022-08-14T06:30:44;96446.63;;;26.21;37.76
17209;BME280;8720;48.488;9.202;2022-08-14T06:33:13;96444.38;;;26.90;36.75
17209;BME280;8720;48.488;9.202;2022-08-14T06:35:40;96434.91;;;27.48;36.22
17209;BME280;8720;48.488;9.202;2022-08-14T06:38:07;96424.78;;;28.03;35.45
17209;BME280;8720;48.488;9.202;2022-08-14T06:40:36;96407.06;;;28.52;34.58
17209;BME280;8720;48.488;9.202;2022-08-14T06:43:06;96400.69;;;29.03;33.59
17209;BME280;8720;48.488;9.202;2022-08-14T06:45:36;96403.47;;;29.43;33.15
17209;BME280;8720;48.488;9.202;2022-08-14T06:48:13;96394.09;;;29.71;32.46
17209;BME280;8720;48.488;9.202;2022-08-14T06:50:42;96395.91;;;30.03;31.93
17209;BME280;8720;48.488;9.202;2022-08-14T06:53:10;96395.31;;;30.39;31.92
17209;BME280;8720;48.488;9.202;2022-08-14T06:55:39;96386.75;;;30.75;30.99
17209;BME280;8720;48.488;9.202;2022-08-14T06:58:11;96394.66;;;31.15;31.03
17209;BME280;8720;48.488;9.202;2022-08-14T07:00:39;96389.72;;;31.49;30.32
17209;BME280;8720;48.488;9.202;2022-08-14T07:03:28;96371.47;;;31.88;29.86
17209;BME280;8720;48.488;9.202;2022-08-14T07:06:13;96369.69;;;32.33;29.23
17209;BME280;8720;48.488;9.202;2022-08-14T07:08:41;96358.75;;;32.70;28.70
17209;BME280;8720;48.488;9.202;2022-08-14T07:11:10;96363.41;;;33.05;27.92
17209;BME280;8720;48.488;9.202;2022-08-14T07:13:38;96362.91;;;33.37;27.98
17209;BME280;8720;48.488;9.202;2022-08-14T07:16:06;96368.22;;;33.66;27.30
17209;BME280;8720;48.488;9.202;2022-08-14T07:18:35;96377.00;;;33.89;26.99
17209;BME280;8720;48.488;9.202;2022-08-14T07:21:05;96376.19;;;34.17;26.31
17209;BME280;8720;48.488;9.202;2022-08-14T07:23:33;96369.69;;;34.45;25.99
17209;BME280;8720;48.488;9.202;2022-08-14T07:26:03;96363.97;;;34.68;26.34
17209;BME280;8720;48.488;9.202;2022-08-14T07:28:32;96369.50;;;34.88;25.47
17209;BME280;8720;48.488;9.202;2022-08-14T07:31:03;96365.03;;;35.08;25.37
17209;BME280;8720;48.488;9.202;2022-08-14T07:33:35;96369.69;;;35.33;25.09
17209;BME280;8720;48.488;9.202;2022-08-14T07:36:07;96367.44;;;35.56;24.71
17209;BME280;8720;48.488;9.202;2022-08-14T07:38:36;96369.34;;;35.62;24.42
17209;BME280;8720;48.488;9.202;2022-08-14T07:41:07;96364.75;;;35.63;23.88
17209;BME280;8720;48.488;9.202;2022-08-14T07:43:35;96368.09;;;35.58;24.46
17209;BME280;8720;48.488;9.202;2022-08-14T07:46:05;96366.00;;;35.60;24.35
17209;BME280;8720;48.488;9.202;2022-08-14T07:48:38;96366.00;;;35.67;24.57
17209;BME280;8720;48.488;9.202;2022-08-14T07:51:08;96367.91;;;35.80;24.08
17209;BME280;8720;48.488;9.202;2022-08-14T07:53:36;96374.38;;;35.85;24.16
17209;BME280;8720;48.488;9.202;2022-08-14T07:56:03;96371.50;;;35.93;23.62
17209;BME280;8720;48.488;9.202;2022-08-14T07:58:30;96366.28;;;35.98;23.89
17209;BME280;8720;48.488;9.202;2022-08-14T08:00:58;96363.94;;;36.08;23.72
17209;BME280;8720;48.488;9.202;2022-08-14T08:03:29;96373.59;;;36.17;23.36
17209;BME280;8720;48.488;9.202;2022-08-14T08:06:02;96376.28;;;36.24;23.86
17209;BME280;8720;48.488;9.202;2022-08-14T08:08:30;96385.72;;;36.34;22.97
17209;BME280;8720;48.488;9.202;2022-08-14T08:10:58;96362.47;;;36.38;23.21
17209;BME280;8720;48.488;9.202;2022-08-14T08:13:28;96373.34;;;36.52;23.09
17209;BME280;8720;48.488;9.202;2022-08-14T08:15:59;96377.50;;;36.61;23.05
17209;BME280;8720;48.488;9.202;2022-08-14T08:18:28;96376.03;;;36.65;22.48
17209;BME280;8720;48.488;9.202;2022-08-14T08:20:56;96372.28;;;36.53;22.70
17209;BME280;8720;48.488;9.202;2022-08-14T08:23:27;96370.00;;;36.43;22.86
17209;BME280;8720;48.488;9.202;2022-08-14T08:25:55;96366.22;;;36.31;22.62
17209;BME280;8720;48.488;9.202;2022-08-14T08:28:26;96364.34;;;36.25;23.02
17209;BME280;8720;48.488;9.202;2022-08-14T08:30:56;96359.34;;;36.15;23.18
17209;BME280;8720;48.488;9.202;2022-08-14T08:33:26;96363.13;;;36.08;23.31
17209;BME280;8720;48.488;9.202;2022-08-14T08:35:58;96361.03;;;36.03;23.21
17209;BME280;8720;48.488;9.202;2022-08-14T08:38:27;96347.19;;;35.92;23.27
17209;BME280;8720;48.488;9.202;2022-08-14T08:40:58;96360.16;;;36.03;23.02
17209;BME280;8720;48.488;9.202;2022-08-14T08:43:28;96357.44;;;36.03;23.00
17209;BME280;8720;48.488;9.202;2022-08-14T08:46:00;96359.34;;;35.96;22.73
17209;BME280;8720;48.488;9.202;2022-08-14T08:48:41;96345.06;;;35.81;22.83
17209;BME280;8720;48.488;9.202;2022-08-14T08:51:19;96337.94;;;35.53;23.09
17209;BME280;8720;48.488;9.202;2022-08-14T08:53:56;96331.13;;;35.23;23.17
17209;BME280;8720;48.488;9.202;2022-08-14T08:56:35;96323.13;;;35.02;23.39
17209;BME280;8720;48.488;9.202;2022-08-14T08:59:14;96337.09;;;34.86;23.32
17209;BME280;8720;48.488;9.202;2022-08-14T09:01:46;96326.16;;;34.73;22.56
17209;BME280;8720;48.488;9.202;2022-08-14T09:04:14;96329.88;;;34.65;22.31
17209;BME280;8720;48.488;9.202;2022-08-14T09:06:43;96331.13;;;34.63;22.61
17209;BME280;8720;48.488;9.202;2022-08-14T09:09:20;96320.00;;;34.58;22.13
17209;BME280;8720;48.488;9.202;2022-08-14T09:11:48;96319.63;;;34.61;21.51
17209;BME280;8720;48.488;9.202;2022-08-14T09:14:16;96322.72;;;34.58;21.98
17209;BME280;8720;48.488;9.202;2022-08-14T09:16:44;96325.03;;;34.54;21.63
17209;BME280;8720;48.488;9.202;2022-08-14T09:19:11;96327.31;;;34.51;21.80
17209;BME280;8720;48.488;9.202;2022-08-14T09:21:39;96332.75;;;34.51;21.61
17209;BME280;8720;48.488;9.202;2022-08-14T09:24:08;96326.88;;;34.54;21.10
17209;BME280;8720;48.488;9.202;2022-08-14T09:26:37;96320.59;;;34.47;20.89
17209;BME280;8720;48.488;9.202;2022-08-14T09:29:05;96316.13;;;34.39;21.51
17209;BME280;8720;48.488;9.202;2022-08-14T09:31:34;96306.31;;;34.38;20.93
17209;BME280;8720;48.488;9.202;2022-08-14T09:34:13;96313.63;;;34.38;21.29
17209;BME280;8720;48.488;9.202;2022-08-14T09:37:06;96314.81;;;34.29;20.93
17209;BME280;8720;48.488;9.202;2022-08-14T09:39:53;96294.72;;;34.17;20.98
17209;BME280;8720;48.488;9.202;2022-08-14T09:42:43;96288.59;;;34.08;21.02
17209;BME280;8720;48.488;9.202;2022-08-14T09:45:16;96281.06;;;34.04;20.71
17209;BME280;8720;48.488;9.202;2022-08-14T09:47:48;96274.53;;;33.98;20.76
17209;BME280;8720;48.488;9.202;2022-08-14T09:50:24;96264.41;;;33.85;20.60
17209;BME280;8720;48.488;9.202;2022-08-14T09:52:56;96271.09;;;33.89;20.61
17209;BME280;8720;48.488;9.202;2022-08-14T09:55:26;96286.97;;;33.86;20.39
17209;BME280;8720;48.488;9.202;2022-08-14T09:58:09;96281.91;;;33.83;20.44
17209;BME280;8720;48.488;9.202;2022-08-14T10:00:44;96289.41;;;33.81;20.20
17209;BME280;8720;48.488;9.202;2022-08-14T10:03:22;96287.53;;;33.81;20.61
17209;BME280;8720;48.488;9.202;2022-08-14T10:05:50;96261.84;;;33.77;19.86
17209;BME280;8720;48.488;9.202;2022-08-14T10:08:41;96272.19;;;33.67;20.28
17209;BME280;8720;48.488;9.202;2022-08-14T10:11:18;96270.25;;;33.61;20.60
17209;BME280;8720;48.488;9.202;2022-08-14T10:13:50;96253.75;;;33.56;20.36
17209;BME280;8720;48.488;9.202;2022-08-14T10:16:21;96255.81;;;33.54;19.92
17209;BME280;8720;48.488;9.202;2022-08-14T10:19:02;96242.34;;;33.46;20.05
17209;BME280;8720;48.488;9.202;2022-08-14T10:21:31;96236.06;;;33.39;19.85
17209;BME280;8720;48.488;9.202;2022-08-14T10:23:59;96232.13;;;33.42;20.13
17209;BME280;8720;48.488;9.202;2022-08-14T10:26:26;96230.03;;;33.44;20.38
17209;BME280;8720;48.488;9.202;2022-08-14T10:29:05;96239.84;;;33.45;20.39
17209;BME280;8720;48.488;9.202;2022-08-14T10:31:34;96233.88;;;33.49;20.16
17209;BME280;8720;48.488;9.202;2022-08-14T10:34:06;96230.56;;;33.54;19.83
17209;BME280;8720;48.488;9.202;2022-08-14T10:36:36;96219.13;;;33.58;19.97
17209;BME280;8720;48.488;9.202;2022-08-14T10:39:06;96220.41;;;33.62;19.59
17209;BME280;8720;48.488;9.202;2022-08-14T10:41:38;96212.19;;;33.56;19.87
17209;BME280;8720;48.488;9.202;2022-08-14T10:44:12;96221.19;;;33.56;19.89
17209;BME280;8720;48.488;9.202;2022-08-14T10:46:50;96199.28;;;33.58;19.83
17209;BME280;8720;48.488;9.202;2022-08-14T10:49:22;96197.19;;;33.60;19.56
17209;BME280;8720;48.488;9.202;2022-08-14T10:52:01;96195.75;;;33.57;19.79
17209;BME280;8720;48.488;9.202;2022-08-14T10:54:36;96197.41;;;33.58;20.05
17209;BME280;8720;48.488;9.202;2022-08-14T10:57:17;96196.13;;;33.54;19.69
17209;BME280;8720;48.488;9.202;2022-08-14T10:59:49;96197.84;;;33.62;19.47
17209;BME280;8720;48.488;9.202;2022-08-14T11:02:24;96192.84;;;33.65;19.76
17209;BME280;8720;48.488;9.202;2022-08-14T11:05:13;96191.03;;;33.72;19.30
17209;BME280;8720;48.488;9.202;2022-08-14T11:07:57;96186.41;;;33.73;19.20
17209;BME280;8720;48.488;9.202;2022-08-14T11:10:40;96196.47;;;33.79;19.33
17209;BME280;8720;48.488;9.202;2022-08-14T11:13:08;96199.84;;;33.81;19.66
17209;BME280;8720;48.488;9.202;2022-08-14T11:15:38;96205.69;;;33.84;19.38
17209;BME280;8720;48.488;9.202;2022-08-14T11:18:05;96210.53;;;33.89;19.51
17209;BME280;8720;48.488;9.202;2022-08-14T11:20:33;96195.31;;;33.88;19.49
17209;BME280;8720;48.488;9.202;2022-08-14T11:23:01;96200.53;;;33.89;19.11
17209;BME280;8720;48.488;9.202;2022-08-14T11:25:30;96202.81;;;33.92;19.31
17209;BME280;8720;48.488;9.202;2022-08-14T11:27:58;96191.75;;;33.94;19.39
17209;BME280;8720;48.488;9.202;2022-08-14T11:30:28;96192.25;;;33.98;19.77
17209;BME280;8720;48.488;9.202;2022-08-14T11:32:57;96191.63;;;34.02;19.82
17209;BME280;8720;48.488;9.202;2022-08-14T11:35:27;96194.16;;;34.10;20.10
17209;BME280;8720;48.488;9.202;2022-08-14T11:37:58;96195.25;;;34.16;19.15
17209;BME280;8720;48.488;9.202;2022-08-14T11:40:29;96187.94;;;34.16;19.22
17209;BME280;8720;48.488;9.202;2022-08-14T11:43:01;96187.09;;;34.16;19.04
17209;BME280;8720;48.488;9.202;2022-08-14T11:45:34;96173.94;;;34.13;19.04
17209;BME280;8720;48.488;9.202;2022-08-14T11:48:15;96179.97;;;34.08;19.50
17209;BME280;8720;48.488;9.202;2022-08-14T11:50:45;96171.59;;;34.10;19.53
17209;BME280;8720;48.488;9.202;2022-08-14T11:53:23;96177.66;;;34.12;19.74
17209;BME280;8720;48.488;9.202;2022-08-14T11:55:57;96178.13;;;34.15;19.57
17209;BME280;8720;48.488;9.202;2022-08-14T11:58:26;96167.69;;;34.19;19.18
17209;BME280;8720;48.488;9.202;2022-08-14T12:00:56;96166.84;;;34.18;19.22
17209;BME280;8720;48.488;9.202;2022-08-14T12:03:37;96160.19;;;34.21;19.00
17209;BME280;8720;48.488;9.202;2022-08-14T12:06:07;96165.41;;;34.29;19.20
17209;BME280;8720;48.488;9.202;2022-08-14T12:08:36;96163.34;;;34.37;18.97
17209;BME280;8720;48.488;9.202;2022-08-14T12:11:05;96160.28;;;34.47;18.72
17209;BME280;8720;48.488;9.202;2022-08-14T12:13:33;96162.59;;;34.56;18.61
17209;BME280;8720;48.488;9.202;2022-08-14T12:16:05;96152.78;;;34.62;18.86
17209;BME280;8720;48.488;9.202;2022-08-14T12:18:37;96155.53;;;34.68;18.85
17209;BME280;8720;48.488;9.202;2022-08-14T12:21:13;96149.88;;;34.70;18.56
17209;BME280;8720;48.488;9.202;2022-08-14T12:23:42;96139.81;;;34.77;18.48
17209;BME280;8720;48.488;9.202;2022-08-14T12:26:17;96136.94;;;34.78;18.60
17209;BME280;8720;48.488;9.202;2022-08-14T12:28:48;96139.22;;;34.75;18.30
17209;BME280;8720;48.488;9.202;2022-08-14T12:31:20;96127.91;;;34.71;18.02
17209;BME280;8720;48.488;9.202;2022-08-14T12:33:59;96128.56;;;34.67;18.26
17209;BME280;8720;48.488;9.202;2022-08-14T12:36:28;96113.47;;;34.58;18.00
17209;BME280;8720;48.488;9.202;2022-08-14T12:38:57;96112.84;;;34.62;18.09
17209;BME280;8720;48.488;9.202;2022-08-14T12:41:28;96109.72;;;34.59;18.01
17209;BME280;8720;48.488;9.202;2022-08-14T12:43:58;96101.78;;;34.57;18.26
17209;BME280;8720;48.488;9.202;2022-08-14T12:46:30;96090.91;;;34.51;17.91
17209;BME280;8720;48.488;9.202;2022-08-14T12:49:02;96095.53;;;34.63;18.02
17209;BME280;8720;48.488;9.202;2022-08-14T12:51:35;96088.41;;;34.69;18.15
17209;BME280;8720;48.488;9.202;2022-08-14T12:54:13;96091.13;;;34.75;18.12
17209;BME280;8720;48.488;9.202;2022-08-14T12:56:40;96085.47;;;34.84;17.89
17209;BME280;8720;48.488;9.202;2022-08-14T12:59:08;96090.06;;;34.90;17.64
17209;BME280;8720;48.488;9.202;2022-08-14T13:01:35;96093.44;;;34.92;17.63
17209;BME280;8720;48.488;9.202;2022-08-14T13:04:08;96091.34;;;34.94;18.13
17209;BME280;8720;48.488;9.202;2022-08-14T13:06:39;96084.69;;;34.96;18.13
17209;BME280;8720;48.488;9.202;2022-08-14T13:09:09;96077.56;;;35.02;17.98
17209;BME280;8720;48.488;9.202;2022-08-14T13:11:41;96073.78;;;35.09;18.08
17209;BME280;8720;48.488;9.202;2022-08-14T13:14:10;96070.22;;;35.15;17.98
17209;BME280;8720;48.488;9.202;2022-08-14T13:16:39;96076.47;;;35.22;18.00
17209;BME280;8720;48.488;9.202;2022-08-14T13:19:12;96070.41;;;35.27;18.03
17209;BME280;8720;48.488;9.202;2022-08-14T13:21:42;96066.63;;;35.34;17.55
17209;BME280;8720;48.488;9.202;2022-08-14T13:24:13;96057.59;;;35.40;17.92
17209;BME280;8720;48.488;9.202;2022-08-14T13:26:43;96068.72;;;35.45;17.40
17209;BME280;8720;48.488;9.202;2022-08-14T13:29:12;96066.16;;;35.50;17.28